48NY weather

Turnbull Airport
Bloomfield, New York, United States

Public forecast

Using degrees Fahrenheit for public forecast. Weather courtesy of forecast.io.

Closest aviation weather report (METAR) to Turnbull Airport

Closest report is Greater Rochester International Airport, 18.1 nm (33.4 km) NW. Retrieved 2019/12/16 01:54 UTC (9 minutes ago):

KROC 160154Z 28007KT 9SM -SN FEW020 BKN040 M03/M10 A3014 RMK AO2 SLP216 PCPN VRY LGT P0000 T10331100

Closest aviation forecast (TAF) to Turnbull Airport

Closest forecast is Greater Rochester International Airport, 18.1 nm (33.4 km) NW. Retrieved 2019-12-16 00:42 UTC (1 hour ago):

TAF KROC 152338Z 1600/1624 28011G18KT P6SM BKN050 FM160200 27009KT P6SM SCT080 FM160500 26007KT P6SM BKN100 FM161900 21005KT P6SM BKN200